Time;durP1;ratioP1;P1;durP2;ratioP2;P2;SDS_P1;SDS_P2;PMS_P1;PMS_P2;Temp;Humidity;BMP_temperature;BMP_pressure;BME280_temperature;BME280_humidity;BME280_pressure;Samples;Min_cycle;Max_cycle;Signal;HPM_P1;HPM_P2
2021/05/28 00:02:22;;;;;;;7.60;4.90;;;;;;;;;;5011524;28;20434;-86
2021/05/28 00:04:47;;;;;;;12.37;6.03;;;;;;;;;;5011335;28;20029;-86
2021/05/28 00:07:12;;;;;;;7.63;4.37;;;;;;;;;;5012236;28;20014;-86
2021/05/28 00:09:39;;;;;;;14.13;5.10;;;;;;;;;;5011257;28;20040;-86
2021/05/28 00:12:06;;;;;;;8.60;4.70;;;;;;;;;;5011041;28;20101;-86
2021/05/28 00:14:31;;;;;;;15.27;4.90;;;;;;;;;;5012389;28;20022;-86
2021/05/28 00:16:56;;;;;;;8.70;4.50;;;;;;;;;;5011234;28;20113;-85
2021/05/28 00:19:21;;;;;;;12.63;4.50;;;;;;;;;;5011026;28;20022;-85
2021/05/28 00:21:46;;;;;;;7.50;4.40;;;;;;;;;;5027446;28;20029;-85
2021/05/28 00:24:12;;;;;;;11.63;5.77;;;;;;;;;;5010326;28;20473;-85
2021/05/28 00:26:37;;;;;;;14.77;5.43;;;;;;;;;;5011105;28;20013;-85
2021/05/28 00:29:03;;;;;;;11.70;4.97;;;;;;;;;;5013846;28;20461;-86
2021/05/28 00:31:28;;;;;;;12.17;5.33;;;;;;;;;;5011289;28;20450;-85
2021/05/28 00:33:53;;;;;;;7.27;4.73;;;;;;;;;;5026520;28;20022;-85
2021/05/28 00:36:18;;;;;;;13.53;5.00;;;;;;;;;;5012083;28;20021;-85
2021/05/28 00:38:44;;;;;;;10.17;5.00;;;;;;;;;;5012211;28;20067;-86
2021/05/28 00:41:10;;;;;;;11.97;4.70;;;;;;;;;;5012074;28;20105;-86
2021/05/28 00:43:36;;;;;;;10.97;5.17;;;;;;;;;;5010667;28;20026;-85
2021/05/28 00:46:01;;;;;;;13.87;5.20;;;;;;;;;;5011717;28;20026;-85
2021/05/28 00:48:26;;;;;;;10.13;4.90;;;;;;;;;;5010467;28;20037;-85
2021/05/28 00:50:51;;;;;;;11.97;5.23;;;;;;;;;;5025620;28;20067;-85
2021/05/28 00:53:17;;;;;;;10.57;4.60;;;;;;;;;;5010673;28;20014;-86
2021/05/28 00:55:42;;;;;;;11.07;4.93;;;;;;;;;;5011463;28;20511;-85
2021/05/28 00:58:07;;;;;;;12.20;5.43;;;;;;;;;;5027242;28;20071;-86
2021/05/28 01:00:33;;;;;;;11.73;5.50;;;;;;;;;;5010303;28;20050;-86
2021/05/28 01:02:58;;;;;;;12.97;5.87;;;;;;;;;;5011322;28;20079;-86
2021/05/28 01:05:23;;;;;;;11.77;5.73;;;;;;;;;;5011703;28;20010;-86
2021/05/28 01:07:49;;;;;;;11.90;6.00;;;;;;;;;;5010375;28;20014;-86
2021/05/28 01:10:14;;;;;;;9.07;5.27;;;;;;;;;;5009751;28;20064;-86
2021/05/28 01:12:40;;;;;;;11.63;5.27;;;;;;;;;;5008840;28;20465;-86
2021/05/28 01:15:06;;;;;;;11.53;5.67;;;;;;;;;;5008273;28;20116;-86
2021/05/28 01:17:31;;;;;;;8.73;5.07;;;;;;;;;;5008791;28;20026;-86
2021/05/28 01:19:57;;;;;;;9.57;5.57;;;;;;;;;;5008497;28;20070;-85
2021/05/28 01:22:22;;;;;;;9.20;5.20;;;;;;;;;;5009108;28;20052;-86
2021/05/28 01:24:47;;;;;;;12.83;5.73;;;;;;;;;;5009346;28;20014;-85
2021/05/28 01:27:13;;;;;;;15.83;5.47;;;;;;;;;;5008832;28;20022;-86
2021/05/28 01:29:38;;;;;;;10.63;4.83;;;;;;;;;;5008224;28;20033;-86
2021/05/28 01:32:03;;;;;;;8.17;5.33;;;;;;;;;;5009784;28;20029;-86
2021/05/28 01:34:29;;;;;;;13.47;5.30;;;;;;;;;;5024283;28;20022;-86
2021/05/28 01:36:54;;;;;;;9.93;5.00;;;;;;;;;;5017750;28;20030;-86
2021/05/28 01:39:20;;;;;;;7.40;5.10;;;;;;;;;;5009623;28;20022;-86
2021/05/28 01:41:45;;;;;;;10.90;5.17;;;;;;;;;;5010995;28;20026;-86
2021/05/28 01:44:11;;;;;;;9.53;5.43;;;;;;;;;;5009895;28;20030;-86
2021/05/28 01:46:36;;;;;;;13.93;4.83;;;;;;;;;;5009289;28;20654;-86
2021/05/28 01:49:03;;;;;;;8.50;5.10;;;;;;;;;;5010063;28;20141;-86
2021/05/28 01:51:29;;;;;;;10.03;4.77;;;;;;;;;;5010866;28;20035;-86
2021/05/28 01:53:54;;;;;;;8.53;5.17;;;;;;;;;;5010960;28;20020;-85
2021/05/28 01:56:19;;;;;;;9.27;5.50;;;;;;;;;;5010928;28;20486;-85
2021/05/28 01:58:44;;;;;;;7.97;5.30;;;;;;;;;;5009713;28;20022;-86
2021/05/28 02:01:09;;;;;;;8.37;4.80;;;;;;;;;;5009388;28;20022;-85
2021/05/28 02:03:34;;;;;;;10.73;5.13;;;;;;;;;;5010778;28;20014;-85
2021/05/28 02:06:00;;;;;;;7.87;4.87;;;;;;;;;;5026196;28;20215;-85
2021/05/28 02:08:25;;;;;;;8.17;5.00;;;;;;;;;;5009566;28;20032;-86
2021/05/28 02:10:50;;;;;;;9.87;4.23;;;;;;;;;;5009577;28;20158;-86
2021/05/28 02:13:15;;;;;;;7.87;4.60;;;;;;;;;;5009659;28;20423;-86
2021/05/28 02:15:41;;;;;;;6.83;4.70;;;;;;;;;;5010356;28;20014;-86
2021/05/28 02:18:06;;;;;;;7.97;4.00;;;;;;;;;;5010660;28;20014;-85
2021/05/28 02:20:32;;;;;;;8.93;5.03;;;;;;;;;;5010577;28;20014;-85
2021/05/28 02:22:57;;;;;;;7.73;4.70;;;;;;;;;;5010756;28;20018;-85
2021/05/28 02:25:22;;;;;;;8.57;4.60;;;;;;;;;;5010476;28;20022;-86
2021/05/28 02:27:48;;;;;;;8.60;5.03;;;;;;;;;;5009571;28;20029;-86
2021/05/28 02:30:13;;;;;;;6.77;4.30;;;;;;;;;;5010615;28;20014;-86
2021/05/28 02:32:39;;;;;;;7.97;4.03;;;;;;;;;;5009035;28;20018;-85
2021/05/28 02:35:06;;;;;;;7.13;4.27;;;;;;;;;;5008916;28;20022;-86
2021/05/28 02:37:31;;;;;;;7.20;3.87;;;;;;;;;;5010445;28;20018;-85
2021/05/28 02:39:57;;;;;;;8.40;4.03;;;;;;;;;;5010239;28;20025;-85
2021/05/28 02:42:22;;;;;;;7.40;4.30;;;;;;;;;;5008805;28;20467;-86
2021/05/28 02:44:47;;;;;;;10.47;4.10;;;;;;;;;;5009269;28;20048;-86
2021/05/28 02:47:12;;;;;;;5.83;3.90;;;;;;;;;;5009158;28;20392;-86
2021/05/28 02:49:38;;;;;;;6.63;3.93;;;;;;;;;;5009165;28;20030;-86
2021/05/28 02:52:03;;;;;;;7.70;4.67;;;;;;;;;;5010529;28;20114;-86
2021/05/28 02:54:29;;;;;;;5.60;4.03;;;;;;;;;;5008982;28;20018;-86
2021/05/28 02:56:54;;;;;;;8.23;3.70;;;;;;;;;;5009347;28;20057;-86
2021/05/28 02:59:20;;;;;;;8.97;3.60;;;;;;;;;;5011556;28;20373;-86
2021/05/28 03:01:45;;;;;;;7.23;3.40;;;;;;;;;;5012285;28;20067;-85
2021/05/28 03:04:10;;;;;;;6.77;3.73;;;;;;;;;;5013729;28;20033;-86
2021/05/28 03:06:36;;;;;;;4.93;3.70;;;;;;;;;;5013313;28;20019;-86
2021/05/28 03:09:01;;;;;;;9.80;3.60;;;;;;;;;;5012200;28;20042;-86
2021/05/28 03:11:26;;;;;;;9.03;4.07;;;;;;;;;;5028789;28;20469;-86
2021/05/28 03:13:51;;;;;;;7.27;3.70;;;;;;;;;;5012209;28;20030;-86
2021/05/28 03:16:16;;;;;;;6.67;3.53;;;;;;;;;;5011858;28;20026;-85
2021/05/28 03:18:48;;;;;;;6.60;3.70;;;;;;;;;;5012117;28;20061;-86
2021/05/28 03:23:46;;;;;;;5.32;3.60;;;;;;;;;;5014287;28;20061;-86
2021/05/28 03:26:11;;;;;;;9.07;4.10;;;;;;;;;;5011871;28;20025;-86
2021/05/28 03:28:36;;;;;;;9.33;4.23;;;;;;;;;;5013029;28;20507;-85
2021/05/28 03:31:01;;;;;;;8.37;4.40;;;;;;;;;;5028249;28;20481;-85
2021/05/28 03:33:26;;;;;;;7.40;3.90;;;;;;;;;;5013151;28;20022;-85
2021/05/28 03:35:52;;;;;;;8.33;5.00;;;;;;;;;;5013066;28;20358;-86
2021/05/28 03:38:17;;;;;;;9.27;4.53;;;;;;;;;;5011856;28;20071;-86
2021/05/28 03:40:42;;;;;;;8.17;4.20;;;;;;;;;;5011629;28;20207;-85
2021/05/28 03:43:07;;;;;;;8.10;4.17;;;;;;;;;;5011628;28;20377;-86
2021/05/28 03:45:32;;;;;;;9.63;4.20;;;;;;;;;;5011727;28;20026;-85
2021/05/28 03:47:58;;;;;;;13.13;4.60;;;;;;;;;;5011573;28;20025;-86
2021/05/28 03:50:23;;;;;;;17.03;5.47;;;;;;;;;;5015876;28;20013;-85
2021/05/28 03:52:48;;;;;;;14.37;5.70;;;;;;;;;;5014089;28;20017;-85
2021/05/28 03:55:13;;;;;;;12.90;6.10;;;;;;;;;;5011648;28;20105;-85
2021/05/28 03:57:39;;;;;;;11.77;5.60;;;;;;;;;;5012596;28;20014;-85
2021/05/28 04:00:04;;;;;;;12.43;5.70;;;;;;;;;;5012537;28;20014;-85
2021/05/28 04:02:29;;;;;;;15.50;6.17;;;;;;;;;;5012446;28;20457;-85
2021/05/28 04:04:54;;;;;;;17.17;5.93;;;;;;;;;;5012537;28;20105;-85
2021/05/28 04:07:20;;;;;;;17.57;5.47;;;;;;;;;;5011295;28;20056;-85
2021/05/28 04:09:45;;;;;;;12.40;5.60;;;;;;;;;;5027217;28;20017;-85
2021/05/28 04:12:10;;;;;;;15.50;6.40;;;;;;;;;;5012132;28;20550;-85
2021/05/28 04:14:35;;;;;;;21.07;6.63;;;;;;;;;;5027734;28;20071;-85
2021/05/28 04:17:01;;;;;;;19.33;6.73;;;;;;;;;;5011648;28;20021;-86
2021/05/28 04:19:26;;;;;;;18.40;6.70;;;;;;;;;;5024000;28;20412;-85
2021/05/28 04:21:51;;;;;;;21.17;7.70;;;;;;;;;;5012210;28;20021;-85
2021/05/28 04:24:16;;;;;;;17.93;7.17;;;;;;;;;;5011065;28;20497;-85
2021/05/28 04:26:41;;;;;;;15.70;7.07;;;;;;;;;;5011073;28;20109;-86
2021/05/28 04:29:07;;;;;;;16.77;6.80;;;;;;;;;;5027215;28;20022;-86
2021/05/28 04:31:32;;;;;;;15.90;7.00;;;;;;;;;;5010949;28;20021;-85
2021/05/28 04:33:57;;;;;;;17.87;7.37;;;;;;;;;;5011876;28;20018;-86
2021/05/28 04:36:22;;;;;;;17.50;7.60;;;;;;;;;;5010921;28;20025;-85
2021/05/28 04:38:48;;;;;;;22.43;8.93;;;;;;;;;;5010813;28;20029;-85
2021/05/28 04:41:13;;;;;;;24.93;9.20;;;;;;;;;;5012089;28;20053;-85
2021/05/28 04:43:38;;;;;;;31.67;9.37;;;;;;;;;;5012013;28;20030;-85
2021/05/28 04:46:04;;;;;;;21.80;9.00;;;;;;;;;;5010775;28;20034;-85
2021/05/28 04:48:29;;;;;;;16.77;8.60;;;;;;;;;;5012215;28;20026;-85
2021/05/28 04:50:54;;;;;;;21.10;8.80;;;;;;;;;;5010526;28;20035;-85
2021/05/28 04:53:19;;;;;;;21.63;9.63;;;;;;;;;;5011841;28;20045;-85
2021/05/28 04:55:44;;;;;;;21.10;8.57;;;;;;;;;;5011910;28;20105;-86
2021/05/28 04:58:10;;;;;;;24.97;9.30;;;;;;;;;;5010305;28;20022;-85
2021/05/28 05:00:35;;;;;;;19.67;9.10;;;;;;;;;;5010747;28;20735;-86
2021/05/28 05:03:01;;;;;;;17.30;8.53;;;;;;;;;;5011703;28;20025;-85
2021/05/28 05:05:27;;;;;;;17.67;9.07;;;;;;;;;;5010350;28;20033;-85
2021/05/28 05:07:52;;;;;;;32.47;10.53;;;;;;;;;;5011719;28;20393;-85
2021/05/28 05:10:17;;;;;;;20.83;10.30;;;;;;;;;;5010289;28;20453;-85
2021/05/28 05:12:42;;;;;;;30.00;10.87;;;;;;;;;;5011669;28;20481;-86
2021/05/28 05:15:08;;;;;;;29.27;11.50;;;;;;;;;;5010281;28;20108;-86
2021/05/28 05:17:33;;;;;;;28.93;11.60;;;;;;;;;;5011540;28;20427;-86
2021/05/28 05:19:59;;;;;;;33.90;12.47;;;;;;;;;;5009856;28;20037;-85
2021/05/28 05:22:24;;;;;;;38.27;13.13;;;;;;;;;;5009207;28;20025;-86
2021/05/28 05:24:49;;;;;;;40.63;14.40;;;;;;;;;;5011508;28;20397;-86
2021/05/28 05:27:15;;;;;;;43.47;14.75;;;;;;;;;;5011456;28;20021;-86
2021/05/28 05:29:40;;;;;;;36.13;14.18;;;;;;;;;;5010312;28;20366;-86
2021/05/28 05:32:05;;;;;;;36.15;12.68;;;;;;;;;;5009949;28;20195;-86
2021/05/28 05:34:31;;;;;;;32.20;12.95;;;;;;;;;;5011102;28;20034;-85
2021/05/28 05:36:58;;;;;;;24.83;11.82;;;;;;;;;;5011262;28;20411;-86
2021/05/28 05:39:23;;;;;;;24.35;11.50;;;;;;;;;;5009853;28;20046;-86
2021/05/28 05:41:49;;;;;;;20.27;10.88;;;;;;;;;;5009739;28;20461;-86
2021/05/28 05:44:14;;;;;;;20.63;10.77;;;;;;;;;;5009700;28;20022;-86
2021/05/28 05:46:39;;;;;;;20.35;10.40;;;;;;;;;;5009906;28;20022;-85
2021/05/28 05:49:05;;;;;;;18.50;10.32;;;;;;;;;;5010793;28;20026;-85
2021/05/28 05:51:30;;;;;;;20.92;10.27;;;;;;;;;;5009597;28;20388;-86
2021/05/28 05:53:55;;;;;;;20.05;10.23;;;;;;;;;;5026208;28;20030;-86
2021/05/28 05:56:20;;;;;;;23.75;10.48;;;;;;;;;;5014900;28;20069;-86
2021/05/28 05:58:45;;;;;;;20.67;10.13;;;;;;;;;;5009506;28;20022;-86
2021/05/28 06:01:11;;;;;;;21.60;10.30;;;;;;;;;;5009339;28;20033;-85
2021/05/28 06:03:36;;;;;;;19.65;10.63;;;;;;;;;;5014480;28;20022;-85
2021/05/28 06:06:01;;;;;;;20.75;10.85;;;;;;;;;;5017020;28;20030;-85
2021/05/28 06:08:26;;;;;;;21.27;10.13;;;;;;;;;;5009139;28;20022;-85
2021/05/28 06:10:52;;;;;;;18.13;9.27;;;;;;;;;;5016011;28;20026;-86
2021/05/28 06:13:17;;;;;;;22.17;10.23;;;;;;;;;;5025131;28;20744;-85
2021/05/28 06:15:42;;;;;;;23.20;11.10;;;;;;;;;;5025413;28;20028;-85
2021/05/28 06:18:08;;;;;;;21.05;11.07;;;;;;;;;;5049362;28;20030;-86
2021/05/28 06:20:33;;;;;;;20.00;10.95;;;;;;;;;;5011140;28;20021;-86
2021/05/28 06:22:58;;;;;;;20.08;9.95;;;;;;;;;;5015857;28;20028;-85
2021/05/28 06:25:24;;;;;;;23.20;11.25;;;;;;;;;;5010827;28;20104;-86
2021/05/28 06:27:49;;;;;;;21.45;11.65;;;;;;;;;;5010757;28;20513;-86
2021/05/28 06:30:14;;;;;;;25.02;14.25;;;;;;;;;;5011203;28;20524;-86
2021/05/28 06:32:40;;;;;;;26.83;15.15;;;;;;;;;;5009863;28;20411;-85
2021/05/28 06:35:05;;;;;;;32.78;17.75;;;;;;;;;;5009212;28;20086;-86
2021/05/28 06:37:31;;;;;;;37.72;18.45;;;;;;;;;;5018375;28;20033;-86
2021/05/28 06:39:56;;;;;;;33.85;18.40;;;;;;;;;;5039690;28;20022;-85
2021/05/28 06:42:24;;;;;;;36.90;20.10;;;;;;;;;;5061341;28;20027;-86
2021/05/28 06:44:49;;;;;;;39.80;20.60;;;;;;;;;;4998107;28;20022;-86
2021/05/28 06:47:16;;;;;;;46.90;22.58;;;;;;;;;;5008673;28;20024;-85
2021/05/28 06:49:42;;;;;;;36.10;20.88;;;;;;;;;;5008537;28;20121;-85
2021/05/28 06:52:07;;;;;;;42.90;20.85;;;;;;;;;;5012285;28;20410;-86
2021/05/28 06:54:33;;;;;;;43.05;21.50;;;;;;;;;;5009876;28;20021;-86
2021/05/28 06:56:58;;;;;;;43.88;20.45;;;;;;;;;;5010625;28;20029;-87
2021/05/28 06:59:23;;;;;;;49.47;22.10;;;;;;;;;;5009800;28;20038;-86
2021/05/28 07:01:49;;;;;;;47.28;21.67;;;;;;;;;;5009634;28;20018;-85
2021/05/28 07:04:14;;;;;;;44.30;20.92;;;;;;;;;;5017415;28;20022;-86
2021/05/28 07:06:39;;;;;;;50.83;22.45;;;;;;;;;;5015456;28;20032;-86
2021/05/28 07:09:06;;;;;;;50.35;22.83;;;;;;;;;;5008998;28;20514;-86
2021/05/28 07:11:31;;;;;;;52.67;23.90;;;;;;;;;;5008479;28;20026;-85
2021/05/28 07:13:56;;;;;;;50.13;21.90;;;;;;;;;;5009661;28;20381;-86
2021/05/28 07:16:21;;;;;;;47.60;20.67;;;;;;;;;;5008538;28;20022;-86
2021/05/28 07:18:48;;;;;;;49.58;23.38;;;;;;;;;;5010816;28;20366;-86
2021/05/28 07:21:13;;;;;;;51.70;23.92;;;;;;;;;;5015228;28;20022;-86
2021/05/28 07:23:38;;;;;;;60.78;26.23;;;;;;;;;;5029167;28;20018;-86
2021/05/28 07:26:04;;;;;;;55.30;24.23;;;;;;;;;;5008502;28;20033;-86
2021/05/28 07:28:30;;;;;;;46.95;21.55;;;;;;;;;;5008483;28;20022;-86
2021/05/28 07:30:55;;;;;;;45.92;21.45;;;;;;;;;;5009394;28;20010;-85
2021/05/28 07:33:20;;;;;;;57.35;26.55;;;;;;;;;;5052073;28;20026;-85
2021/05/28 07:35:46;;;;;;;47.72;22.15;;;;;;;;;;5024028;28;20100;-85
2021/05/28 07:38:11;;;;;;;35.78;18.23;;;;;;;;;;5009776;28;20033;-86
2021/05/28 07:40:37;;;;;;;52.13;22.88;;;;;;;;;;5008400;28;20022;-86
2021/05/28 07:43:03;;;;;;;45.30;22.13;;;;;;;;;;5009700;28;20018;-86
2021/05/28 07:45:28;;;;;;;46.55;22.35;;;;;;;;;;5012263;28;20014;-86
2021/05/28 07:47:53;;;;;;;33.72;17.17;;;;;;;;;;5011543;28;20108;-86
2021/05/28 07:50:19;;;;;;;25.45;13.45;;;;;;;;;;5013233;28;20450;-86
2021/05/28 07:52:44;;;;;;;27.75;14.95;;;;;;;;;;5012734;28;20432;-86
2021/05/28 07:55:09;;;;;;;26.20;12.95;;;;;;;;;;5011562;28;20030;-86
2021/05/28 07:57:35;;;;;;;28.13;14.18;;;;;;;;;;5012660;28;20055;-86
2021/05/28 08:00:00;;;;;;;22.55;12.65;;;;;;;;;;5011554;28;20018;-86
2021/05/28 08:02:25;;;;;;;23.98;11.93;;;;;;;;;;5012776;28;20045;-86
2021/05/28 08:04:51;;;;;;;21.45;12.40;;;;;;;;;;5016803;28;20118;-86
2021/05/28 08:07:16;;;;;;;22.83;12.80;;;;;;;;;;5012696;28;20018;-86
2021/05/28 08:09:41;;;;;;;25.83;12.38;;;;;;;;;;5011405;28;20054;-86
2021/05/28 08:12:06;;;;;;;19.80;10.98;;;;;;;;;;5012622;28;20029;-86
2021/05/28 08:14:31;;;;;;;30.83;15.00;;;;;;;;;;5022867;28;20017;-86
2021/05/28 08:16:57;;;;;;;25.80;14.77;;;;;;;;;;5016782;28;20022;-86
2021/05/28 08:19:22;;;;;;;22.90;13.82;;;;;;;;;;5011348;28;20052;-86
2021/05/28 08:21:47;;;;;;;32.50;17.90;;;;;;;;;;5012229;28;20361;-86
2021/05/28 08:24:12;;;;;;;33.95;17.70;;;;;;;;;;5020145;28;20022;-87
2021/05/28 08:26:38;;;;;;;33.30;17.92;;;;;;;;;;5011379;28;20041;-86
2021/05/28 08:29:03;;;;;;;33.95;17.40;;;;;;;;;;5018144;28;20022;-86
2021/05/28 08:31:29;;;;;;;26.83;15.07;;;;;;;;;;5011242;28;20408;-87
2021/05/28 08:33:54;;;;;;;26.38;13.05;;;;;;;;;;5022281;28;20376;-87
2021/05/28 08:36:20;;;;;;;29.42;15.55;;;;;;;;;;5011045;28;20103;-85
2021/05/28 08:38:46;;;;;;;34.13;16.67;;;;;;;;;;5012083;28;20026;-87
2021/05/28 08:41:11;;;;;;;29.70;17.40;;;;;;;;;;5010837;28;20026;-87
2021/05/28 08:43:37;;;;;;;33.65;17.42;;;;;;;;;;5012303;28;20137;-87
2021/05/28 08:46:06;;;;;;;22.45;8.90;;;;;;;;;;5010986;28;20045;-88
2021/05/28 08:48:32;;;;;;;16.90;8.05;;;;;;;;;;5030203;28;20015;-87
2021/05/28 08:50:57;;;;;;;12.95;8.32;;;;;;;;;;5093783;28;20027;-87
2021/05/28 08:53:24;;;;;;;16.38;9.32;;;;;;;;;;5103973;28;20028;-86
2021/05/28 08:55:49;;;;;;;15.90;8.95;;;;;;;;;;5068028;28;20046;-86
2021/05/28 08:58:15;;;;;;;16.73;7.80;;;;;;;;;;5031890;28;20110;-86
2021/05/28 09:00:44;;;;;;;12.95;8.07;;;;;;;;;;5010809;28;20018;-86
2021/05/28 09:03:24;;;;;;;16.55;8.82;;;;;;;;;;5010387;28;20022;-87
2021/05/28 09:05:50;;;;;;;17.77;8.43;;;;;;;;;;5010578;28;20101;-87
2021/05/28 09:08:26;;;;;;;17.90;7.85;;;;;;;;;;5018305;28;20057;-86
2021/05/28 09:10:53;;;;;;;19.38;9.50;;;;;;;;;;5015438;28;20198;-87
2021/05/28 09:13:21;;;;;;;17.60;9.93;;;;;;;;;;5010329;28;20022;-86
2021/05/28 09:15:48;;;;;;;17.80;7.85;;;;;;;;;;5010423;28;20108;-87
2021/05/28 09:18:13;;;;;;;10.82;6.57;;;;;;;;;;5027059;28;20104;-87
2021/05/28 09:20:39;;;;;;;10.52;6.78;;;;;;;;;;5027953;28;20057;-87
2021/05/28 09:23:09;;;;;;;10.65;6.15;;;;;;;;;;5047904;28;20080;-87
2021/05/28 09:25:51;;;;;;;11.27;6.97;;;;;;;;;;5025143;28;20484;-87
2021/05/28 09:28:16;;;;;;;14.80;8.95;;;;;;;;;;5009970;28;20010;-86
2021/05/28 09:30:41;;;;;;;12.95;7.90;;;;;;;;;;5011275;28;20488;-87
2021/05/28 09:33:06;;;;;;;19.45;9.40;;;;;;;;;;5018609;28;20079;-87
2021/05/28 09:35:31;;;;;;;13.27;8.90;;;;;;;;;;5010028;28;20479;-87
2021/05/28 09:37:56;;;;;;;14.93;10.30;;;;;;;;;;5010020;28;20026;-86
2021/05/28 09:40:23;;;;;;;14.52;8.60;;;;;;;;;;5010365;28;20098;-86
2021/05/28 09:42:50;;;;;;;22.33;8.27;;;;;;;;;;5009594;28;20050;-86
2021/05/28 09:45:19;;;;;;;21.00;7.95;;;;;;;;;;5026358;28;20515;-87
2021/05/28 09:47:45;;;;;;;17.42;9.48;;;;;;;;;;5059403;28;20022;-87
2021/05/28 09:50:12;;;;;;;15.60;7.05;;;;;;;;;;5010148;28;20052;-86
2021/05/28 09:52:37;;;;;;;15.00;7.30;;;;;;;;;;5010680;28;20079;-87
2021/05/28 09:55:15;;;;;;;18.73;8.38;;;;;;;;;;5026359;28;20389;-87
2021/05/28 09:57:44;;;;;;;15.70;7.72;;;;;;;;;;5010643;28;20467;-87
2021/05/28 10:00:10;;;;;;;11.35;6.35;;;;;;;;;;5010792;28;20041;-87
2021/05/28 10:02:43;;;;;;;10.07;5.93;;;;;;;;;;5011275;28;20029;-88
2021/05/28 10:05:08;;;;;;;13.35;5.22;;;;;;;;;;5009490;28;20029;-86
2021/05/28 10:07:33;;;;;;;15.13;7.30;;;;;;;;;;5009005;28;20037;-88
2021/05/28 10:09:59;;;;;;;9.73;6.18;;;;;;;;;;5073983;28;20034;-86
2021/05/28 10:12:24;;;;;;;13.20;6.03;;;;;;;;;;5010905;28;20013;-86
2021/05/28 10:14:51;;;;;;;15.45;6.70;;;;;;;;;;5010735;28;20010;-87
2021/05/28 10:17:16;;;;;;;12.52;6.45;;;;;;;;;;5010705;28;20018;-86
2021/05/28 10:19:42;;;;;;;9.30;5.15;;;;;;;;;;5010363;28;20014;-86
2021/05/28 10:22:07;;;;;;;13.43;6.03;;;;;;;;;;5010420;28;20376;-86
2021/05/28 10:24:32;;;;;;;14.88;5.90;;;;;;;;;;5009045;28;20511;-86
2021/05/28 10:26:58;;;;;;;9.38;4.97;;;;;;;;;;5010420;28;20101;-87
2021/05/28 10:29:27;;;;;;;8.77;5.15;;;;;;;;;;5009351;28;20045;-86
2021/05/28 10:32:09;;;;;;;8.77;5.00;;;;;;;;;;5010691;28;20465;-87
2021/05/28 10:34:34;;;;;;;11.75;5.07;;;;;;;;;;5039365;28;20118;-87
2021/05/28 10:37:00;;;;;;;10.30;5.50;;;;;;;;;;5031193;28;20134;-86
2021/05/28 10:39:26;;;;;;;11.57;5.93;;;;;;;;;;5009992;28;20602;-86
2021/05/28 10:41:54;;;;;;;9.15;5.18;;;;;;;;;;5009397;28;20073;-86
2021/05/28 10:44:25;;;;;;;8.43;4.93;;;;;;;;;;5008931;28;20021;-86
2021/05/28 10:46:54;;;;;;;18.17;5.28;;;;;;;;;;5014281;28;20500;-87
2021/05/28 10:49:35;;;;;;;13.50;5.03;;;;;;;;;;5049364;28;20079;-86
2021/05/28 10:52:01;;;;;;;10.02;4.88;;;;;;;;;;5036064;28;20069;-87
2021/05/28 10:54:27;;;;;;;9.43;4.40;;;;;;;;;;5011264;28;20045;-87
2021/05/28 10:56:52;;;;;;;12.07;4.72;;;;;;;;;;5010433;28;20022;-87
2021/05/28 10:59:19;;;;;;;8.13;3.90;;;;;;;;;;5023756;28;20479;-86
2021/05/28 11:01:57;;;;;;;9.77;4.30;;;;;;;;;;5009001;28;20030;-86
2021/05/28 11:04:31;;;;;;;12.50;4.50;;;;;;;;;;5038768;28;20036;-86
2021/05/28 11:07:00;;;;;;;12.00;4.05;;;;;;;;;;5019268;28;20397;-86
2021/05/28 11:09:44;;;;;;;8.50;4.07;;;;;;;;;;5018279;28;20019;-86
2021/05/28 11:12:09;;;;;;;8.15;4.15;;;;;;;;;;5008761;28;20092;-86
2021/05/28 11:14:36;;;;;;;10.02;3.40;;;;;;;;;;5015842;28;20037;-87
2021/05/28 11:17:01;;;;;;;6.18;2.70;;;;;;;;;;5009218;28;20034;-86
2021/05/28 11:19:30;;;;;;;7.63;2.55;;;;;;;;;;5017185;28;20396;-87
2021/05/28 11:22:00;;;;;;;5.90;2.95;;;;;;;;;;5052746;28;20034;-87
2021/05/28 11:24:42;;;;;;;11.10;4.10;;;;;;;;;;5071887;28;20029;-86
2021/05/28 11:27:14;;;;;;;9.25;3.60;;;;;;;;;;5054728;27;20030;-85
2021/05/28 11:29:39;;;;;;;7.07;3.33;;;;;;;;;;5050947;28;20025;-86
2021/05/28 11:32:23;;;;;;;9.27;3.83;;;;;;;;;;5010514;28;20470;-85
2021/05/28 11:35:07;;;;;;;15.95;4.50;;;;;;;;;;5062808;28;20065;-87
2021/05/28 11:37:38;;;;;;;8.10;3.75;;;;;;;;;;5022815;28;20018;-87
2021/05/28 11:40:14;;;;;;;9.40;3.78;;;;;;;;;;5023069;28;20039;-86
2021/05/28 11:42:40;;;;;;;7.53;3.55;;;;;;;;;;5022017;28;20029;-87
2021/05/28 11:45:06;;;;;;;7.10;3.53;;;;;;;;;;5036247;28;20028;-87
2021/05/28 11:47:33;;;;;;;13.75;3.80;;;;;;;;;;5011528;28;20500;-86
2021/05/28 11:49:59;;;;;;;8.07;3.42;;;;;;;;;;5012902;28;20014;-87
2021/05/28 11:52:24;;;;;;;5.70;3.10;;;;;;;;;;5025346;28;20057;-86
2021/05/28 11:55:02;;;;;;;9.30;3.65;;;;;;;;;;5012678;28;20064;-87
2021/05/28 11:57:27;;;;;;;13.38;3.10;;;;;;;;;;5011554;28;20033;-86
2021/05/28 11:59:57;;;;;;;6.28;3.33;;;;;;;;;;5011163;28;20018;-86
2021/05/28 12:02:38;;;;;;;7.25;3.40;;;;;;;;;;5011442;28;20525;-87
2021/05/28 12:05:05;;;;;;;7.82;3.42;;;;;;;;;;5012503;28;20100;-86
2021/05/28 12:07:30;;;;;;;5.75;3.28;;;;;;;;;;5012553;28;20018;-87
2021/05/28 12:10:06;;;;;;;9.15;3.80;;;;;;;;;;5012863;28;20051;-86
2021/05/28 12:13:01;;;;;;;8.35;3.95;;;;;;;;;;5011370;28;20030;-86
2021/05/28 12:15:37;;;;;;;10.10;3.60;;;;;;;;;;4998504;28;20022;-86
2021/05/28 12:18:12;;;;;;;5.93;3.38;;;;;;;;;;5012670;28;20053;-86
2021/05/28 12:20:38;;;;;;;8.45;3.50;;;;;;;;;;5010944;28;20018;-87
2021/05/28 12:23:03;;;;;;;6.72;4.00;;;;;;;;;;5012040;28;20030;-86
2021/05/28 12:25:39;;;;;;;8.55;3.72;;;;;;;;;;5010948;28;20018;-87
2021/05/28 12:28:07;;;;;;;6.40;2.70;;;;;;;;;;5011350;28;20071;-87
2021/05/28 12:30:32;;;;;;;15.80;5.15;;;;;;;;;;5013439;28;20018;-87
2021/05/28 12:32:58;;;;;;;7.45;2.88;;;;;;;;;;5011084;28;20029;-86
2021/05/28 12:35:23;;;;;;;5.90;3.13;;;;;;;;;;5012251;28;20025;-86
2021/05/28 12:38:02;;;;;;;6.45;2.70;;;;;;;;;;4997210;28;20029;-87
2021/05/28 12:40:27;;;;;;;7.03;2.88;;;;;;;;;;5010943;28;20022;-86
2021/05/28 12:42:57;;;;;;;5.78;2.38;;;;;;;;;;5010607;28;20018;-86
2021/05/28 12:45:31;;;;;;;8.40;2.75;;;;;;;;;;5011998;28;20378;-86
2021/05/28 12:47:56;;;;;;;6.30;3.35;;;;;;;;;;5010920;28;20041;-87
2021/05/28 12:50:34;;;;;;;5.25;2.80;;;;;;;;;;5010749;28;20018;-87
2021/05/28 12:53:01;;;;;;;6.22;3.13;;;;;;;;;;5010835;28;20037;-86
2021/05/28 12:55:33;;;;;;;6.13;3.25;;;;;;;;;;5010618;28;20029;-86
2021/05/28 12:57:59;;;;;;;8.63;3.38;;;;;;;;;;5017273;28;20044;-86
2021/05/28 13:00:33;;;;;;;5.47;3.03;;;;;;;;;;5008517;28;20022;-87
2021/05/28 13:02:59;;;;;;;8.50;3.55;;;;;;;;;;5009812;28;20424;-87
2021/05/28 13:05:35;;;;;;;10.18;3.10;;;;;;;;;;5010000;28;20014;-87
2021/05/28 13:08:00;;;;;;;6.00;3.65;;;;;;;;;;5009401;28;20385;-87
2021/05/28 13:10:27;;;;;;;7.30;3.38;;;;;;;;;;5025183;28;20018;-86
2021/05/28 13:12:52;;;;;;;6.97;3.95;;;;;;;;;;5009845;28;20469;-86
2021/05/28 13:15:22;;;;;;;8.00;3.38;;;;;;;;;;5008595;28;20029;-87
2021/05/28 13:17:54;;;;;;;7.00;3.92;;;;;;;;;;5008928;28;20029;-86
2021/05/28 13:20:19;;;;;;;7.32;5.10;;;;;;;;;;5009990;28;20018;-87
2021/05/28 13:22:45;;;;;;;9.25;5.65;;;;;;;;;;5010436;28;20026;-87
2021/05/28 13:25:11;;;;;;;10.13;4.47;;;;;;;;;;5008815;28;20021;-86
2021/05/28 13:27:36;;;;;;;12.74;5.72;;;;;;;;;;5009356;28;20358;-86
2021/05/28 13:30:01;;;;;;;11.50;5.53;;;;;;;;;;5011269;28;20030;-87
2021/05/28 13:32:36;;;;;;;12.93;7.03;;;;;;;;;;5011187;28;20457;-86
2021/05/28 13:35:03;;;;;;;14.77;7.00;;;;;;;;;;5009925;28;20438;-86
2021/05/28 13:37:28;;;;;;;12.27;6.47;;;;;;;;;;5013802;28;20534;-86
2021/05/28 13:39:53;;;;;;;15.05;6.88;;;;;;;;;;5010036;28;20022;-86
2021/05/28 13:42:22;;;;;;;13.73;6.95;;;;;;;;;;5008754;28;20025;-86
2021/05/28 13:44:48;;;;;;;13.38;7.75;;;;;;;;;;5010260;28;20369;-87
2021/05/28 13:47:14;;;;;;;11.40;8.07;;;;;;;;;;5011003;28;20018;-86
2021/05/28 13:49:39;;;;;;;13.80;7.38;;;;;;;;;;5009520;28;20059;-86
2021/05/28 13:52:04;;;;;;;12.30;6.93;;;;;;;;;;5010936;28;20026;-86
2021/05/28 13:54:29;;;;;;;12.20;7.13;;;;;;;;;;5009789;28;20024;-86
2021/05/28 13:56:55;;;;;;;11.10;7.95;;;;;;;;;;5009873;28;20059;-86
2021/05/28 13:59:20;;;;;;;13.38;8.07;;;;;;;;;;5010804;28;20372;-86
2021/05/28 14:01:46;;;;;;;15.73;8.15;;;;;;;;;;5009454;28;20100;-86
2021/05/28 14:04:11;;;;;;;13.77;8.85;;;;;;;;;;5009779;28;20366;-86
2021/05/28 14:06:36;;;;;;;15.98;8.52;;;;;;;;;;5010765;28;20018;-86
2021/05/28 14:09:03;;;;;;;17.67;8.73;;;;;;;;;;5010705;28;20014;-86
2021/05/28 14:11:28;;;;;;;15.70;8.43;;;;;;;;;;5009600;28;20022;-86
2021/05/28 14:13:53;;;;;;;18.42;9.13;;;;;;;;;;5009328;28;20465;-86
2021/05/28 14:16:19;;;;;;;17.67;10.45;;;;;;;;;;5026065;28;20113;-86
2021/05/28 14:18:45;;;;;;;13.70;9.30;;;;;;;;;;5009133;28;20045;-86
2021/05/28 14:21:10;;;;;;;15.73;8.43;;;;;;;;;;5008415;28;20469;-86
2021/05/28 14:23:37;;;;;;;13.82;7.40;;;;;;;;;;5007368;28;20078;-86
2021/05/28 14:26:03;;;;;;;15.07;8.10;;;;;;;;;;5009647;28;20025;-87
2021/05/28 14:28:29;;;;;;;14.68;8.07;;;;;;;;;;5009225;28;20022;-86
2021/05/28 14:30:54;;;;;;;11.68;6.88;;;;;;;;;;5007937;28;20022;-86